createdAt,value
2024-01-15T00:01:03.154Z,70.19
2024-01-15T00:03:29.866Z,69.24
2024-01-15T00:05:56.665Z,69.74
2024-01-15T00:08:23.491Z,68.71
2024-01-15T00:10:50.167Z,68.19
2024-01-15T00:13:16.819Z,69.66
2024-01-15T00:15:43.595Z,71.73
2024-01-15T00:18:10.363Z,71.97
2024-01-15T00:20:37.113Z,69.57
2024-01-15T00:23:03.877Z,68.56
2024-01-15T00:25:30.492Z,69.48
2024-01-15T00:27:57.129Z,67.97
2024-01-15T00:30:23.862Z,68.43
2024-01-15T00:32:50.702Z,68.90
2024-01-15T00:35:17.437Z,69.67
2024-01-15T00:37:44.092Z,68.01
2024-01-15T00:40:10.689Z,69.22
2024-01-15T00:42:37.391Z,68.23
2024-01-15T00:45:04.114Z,68.13
2024-01-15T00:47:30.852Z,69.17
2024-01-15T00:49:57.530Z,68.03
2024-01-15T00:52:24.216Z,68.88
2024-01-15T00:54:50.928Z,68.49
2024-01-15T00:57:17.637Z,69.58
2024-01-15T00:59:44.357Z,70.93
2024-01-15T01:02:10.976Z,70.12
2024-01-15T01:04:37.608Z,68.77
2024-01-15T01:07:04.296Z,69.16
2024-01-15T01:09:30.981Z,68.84
2024-01-15T01:11:57.627Z,68.72
2024-01-15T01:14:24.359Z,69.30
2024-01-15T01:16:50.968Z,68.39
2024-01-15T01:19:17.870Z,69.47
2024-01-15T01:21:44.758Z,69.00
2024-01-15T01:24:11.506Z,69.69
2024-01-15T01:26:38.148Z,68.33
2024-01-15T01:29:06.487Z,67.58
2024-01-15T01:31:33.156Z,69.07
2024-01-15T01:34:00.011Z,69.02
2024-01-15T01:36:26.786Z,70.10
2024-01-15T01:38:53.440Z,69.06
2024-01-15T01:41:20.055Z,68.18
2024-01-15T01:43:46.745Z,68.59
2024-01-15T01:46:13.410Z,68.34
2024-01-15T01:48:40.242Z,67.98
2024-01-15T01:51:07.018Z,68.04
2024-01-15T01:53:33.634Z,68.50
2024-01-15T01:56:00.248Z,68.82
2024-01-15T01:58:27.028Z,67.93
2024-01-15T02:00:53.790Z,69.16
2024-01-15T02:03:20.466Z,70.01
2024-01-15T02:05:47.323Z,68.46
2024-01-15T02:08:13.965Z,69.27
2024-01-15T02:10:40.616Z,68.92
2024-01-15T02:13:07.305Z,69.14
2024-01-15T02:15:33.944Z,69.91
2024-01-15T02:18:00.723Z,69.22
2024-01-15T02:20:27.474Z,68.91
2024-01-15T02:22:54.115Z,70.24
2024-01-15T02:25:20.737Z,70.82
2024-01-15T02:27:47.430Z,70.32
2024-01-15T02:30:14.264Z,71.48
2024-01-15T02:32:41.020Z,70.12
2024-01-15T02:35:07.822Z,70.61
2024-01-15T02:37:34.465Z,69.56
2024-01-15T02:40:01.140Z,68.99
2024-01-15T02:42:27.957Z,72.38
2024-01-15T02:44:54.615Z,73.71
2024-01-15T02:47:21.264Z,72.49
2024-01-15T02:49:48.048Z,71.79
2024-01-15T02:52:14.760Z,71.38
2024-01-15T02:54:41.499Z,71.89
2024-01-15T02:57:10.714Z,70.70
2024-01-15T02:59:37.374Z,70.53
2024-01-15T03:02:03.994Z,70.74
2024-01-15T03:04:30.739Z,71.29
2024-01-15T03:06:57.435Z,71.88
2024-01-15T03:09:24.104Z,71.12
2024-01-15T03:11:50.783Z,70.17
2024-01-15T03:14:17.418Z,70.39
2024-01-15T03:16:44.046Z,70.58
2024-01-15T03:19:10.779Z,70.18
2024-01-15T03:21:37.537Z,69.85
2024-01-15T03:24:04.227Z,71.44
2024-01-15T03:26:30.909Z,70.20
2024-01-15T03:28:57.510Z,71.03
2024-01-15T03:31:24.264Z,72.97
2024-01-15T03:33:51.106Z,73.18
2024-01-15T03:36:17.785Z,73.90
2024-01-15T03:38:44.441Z,74.58
2024-01-15T03:41:11.146Z,74.15
2024-01-15T03:43:37.758Z,74.27
2024-01-15T03:46:04.412Z,72.16
2024-01-15T03:48:31.286Z,75.08
2024-01-15T03:50:57.977Z,73.09
2024-01-15T03:53:24.606Z,71.89
2024-01-15T03:55:51.463Z,70.94
2024-01-15T03:58:18.091Z,70.55
2024-01-15T04:00:44.830Z,73.65
2024-01-15T04:03:11.564Z,73.14
2024-01-15T04:05:38.320Z,73.42
2024-01-15T04:08:04.985Z,73.29
2024-01-15T04:10:31.757Z,73.42
2024-01-15T04:12:58.451Z,73.12
2024-01-15T04:15:25.119Z,75.29
2024-01-15T04:17:53.758Z,74.03
2024-01-15T04:20:22.913Z,72.42
2024-01-15T04:22:50.372Z,71.07
2024-01-15T04:25:17.066Z,71.86
2024-01-15T04:27:43.737Z,70.61
2024-01-15T04:30:10.493Z,69.77
2024-01-15T04:32:37.266Z,70.39
2024-01-15T04:35:03.970Z,70.45
2024-01-15T04:37:30.599Z,71.12
2024-01-15T04:39:57.339Z,71.28
2024-01-15T04:42:24.008Z,71.51
2024-01-15T04:44:51.084Z,72.09
2024-01-15T04:47:17.776Z,71.28
2024-01-15T04:49:44.436Z,71.96
2024-01-15T04:52:11.105Z,72.14
2024-01-15T04:54:37.863Z,70.75
2024-01-15T04:57:04.513Z,72.34
2024-01-15T04:59:31.137Z,74.70
2024-01-15T05:01:57.817Z,74.17
2024-01-15T05:04:24.472Z,73.01
2024-01-15T05:06:51.242Z,72.24
2024-01-15T05:09:18.009Z,71.15
2024-01-15T05:11:44.633Z,71.35
2024-01-15T05:14:11.287Z,70.84
2024-01-15T05:16:37.957Z,72.23
2024-01-15T05:19:04.691Z,70.27
2024-01-15T05:21:31.422Z,70.32
2024-01-15T05:23:58.121Z,69.94
2024-01-15T05:26:24.746Z,70.12
2024-01-15T05:28:51.392Z,70.83
2024-01-15T05:31:18.187Z,69.98
2024-01-15T05:33:44.931Z,70.17
2024-01-15T05:36:11.623Z,69.87
2024-01-15T05:38:38.319Z,69.78
2024-01-15T05:41:04.938Z,70.15
2024-01-15T05:43:31.565Z,70.67
2024-01-15T05:45:58.458Z,69.41
2024-01-15T05:48:25.314Z,70.83
2024-01-15T05:50:52.014Z,70.82
2024-01-15T05:53:18.707Z,70.44
2024-01-15T05:55:45.317Z,70.09
2024-01-15T05:58:11.936Z,70.32
2024-01-15T06:00:38.690Z,70.41
2024-01-15T06:03:05.355Z,70.05
2024-01-15T06:05:32.004Z,71.68
2024-01-15T06:07:58.736Z,70.07
2024-01-15T06:10:25.378Z,69.00
2024-01-15T06:12:52.100Z,69.40
2024-01-15T06:15:18.854Z,70.05
2024-01-15T06:17:45.587Z,70.71
2024-01-15T06:20:12.300Z,72.17
2024-01-15T06:22:39.004Z,74.30
2024-01-15T06:25:05.652Z,72.17
2024-01-15T06:27:32.318Z,71.30
2024-01-15T06:29:59.041Z,70.45
2024-01-15T06:32:25.933Z,69.98
2024-01-15T06:34:52.723Z,70.04
2024-01-15T06:37:19.432Z,70.69
2024-01-15T06:39:46.134Z,69.30
2024-01-15T06:42:12.959Z,70.94
2024-01-15T06:44:39.647Z,70.77
2024-01-15T06:47:06.263Z,70.91
2024-01-15T06:49:32.980Z,69.88
2024-01-15T06:51:59.875Z,69.40
2024-01-15T06:54:26.558Z,70.74
2024-01-15T06:56:53.188Z,69.64
2024-01-15T06:59:20.528Z,68.58
2024-01-15T07:01:47.322Z,69.37
2024-01-15T07:04:14.022Z,70.04
2024-01-15T07:06:40.779Z,68.67
2024-01-15T07:09:07.422Z,68.95
2024-01-15T07:11:34.082Z,69.44
2024-01-15T07:14:00.776Z,70.82
2024-01-15T07:16:36.531Z,69.51
2024-01-15T07:19:05.003Z,68.45
2024-01-15T07:21:31.771Z,69.39
2024-01-15T07:23:58.419Z,71.34
2024-01-15T07:26:25.119Z,69.97
2024-01-15T07:28:51.762Z,71.17
2024-01-15T07:31:18.466Z,70.88
2024-01-15T07:33:45.261Z,72.37
2024-01-15T07:36:11.974Z,71.47
2024-01-15T07:38:38.624Z,70.32
2024-01-15T07:41:05.293Z,70.13
2024-01-15T07:43:31.952Z,69.67
2024-01-15T07:45:58.652Z,69.55
2024-01-15T07:48:25.666Z,69.55
2024-01-15T07:50:52.416Z,68.76
2024-01-15T07:53:19.076Z,69.35
2024-01-15T07:55:45.744Z,69.83
2024-01-15T07:58:16.381Z,69.57
2024-01-15T08:00:44.048Z,68.32
2024-01-15T08:03:10.951Z,68.58
2024-01-15T08:05:37.611Z,68.20
2024-01-15T08:08:04.249Z,68.77
2024-01-15T08:10:30.924Z,68.85
2024-01-15T08:12:57.615Z,68.99
2024-01-15T08:15:25.048Z,69.00
2024-01-15T08:17:52.689Z,68.75
2024-01-15T08:20:19.459Z,68.79
2024-01-15T08:22:46.139Z,67.97
2024-01-15T08:25:12.796Z,67.50
2024-01-15T08:27:39.502Z,68.01
2024-01-15T08:30:06.147Z,67.92
2024-01-15T08:32:32.859Z,68.59
2024-01-15T08:34:59.716Z,67.36
2024-01-15T08:37:26.467Z,66.04
2024-01-15T08:39:53.158Z,67.93
2024-01-15T08:42:19.884Z,66.27
2024-01-15T08:44:46.513Z,66.00
2024-01-15T08:47:15.332Z,66.59
2024-01-15T08:49:42.231Z,67.20
2024-01-15T08:52:08.888Z,67.15
2024-01-15T08:54:35.565Z,65.79
2024-01-15T08:57:02.200Z,64.96
2024-01-15T08:59:28.845Z,64.59
2024-01-15T09:01:55.615Z,64.20
2024-01-15T09:04:22.368Z,64.74
2024-01-15T09:06:49.101Z,64.57
2024-01-15T09:09:15.975Z,63.94
2024-01-15T09:11:42.691Z,63.86
2024-01-15T09:14:09.340Z,65.88
2024-01-15T09:16:36.072Z,67.30
2024-01-15T09:19:02.782Z,66.87
2024-01-15T09:21:29.481Z,65.73
2024-01-15T09:23:56.246Z,65.05
2024-01-15T09:26:22.902Z,64.29
2024-01-15T09:28:49.547Z,63.18
2024-01-15T09:31:16.324Z,63.71
2024-01-15T09:33:43.093Z,63.45
2024-01-15T09:36:09.869Z,63.84
2024-01-15T09:38:36.590Z,62.51
2024-01-15T09:41:03.210Z,62.20
2024-01-15T09:43:29.821Z,61.44
2024-01-15T09:45:56.588Z,59.82
2024-01-15T09:48:23.409Z,60.71
2024-01-15T09:50:50.092Z,59.33
2024-01-15T09:53:16.745Z,59.34
2024-01-15T09:55:43.378Z,57.53
2024-01-15T09:58:09.984Z,59.22
2024-01-15T10:00:36.736Z,58.82
2024-01-15T10:03:03.422Z,56.90
2024-01-15T10:05:30.053Z,55.44
2024-01-15T10:07:57.018Z,56.89
2024-01-15T10:10:23.730Z,56.36
2024-01-15T10:12:50.413Z,54.90
2024-01-15T10:15:17.175Z,55.74
2024-01-15T10:17:43.862Z,55.07
2024-01-15T10:20:10.629Z,53.21
2024-01-15T10:22:37.325Z,53.30
2024-01-15T10:25:04.054Z,52.02
2024-01-15T10:27:30.753Z,52.56
2024-01-15T10:29:57.470Z,51.36
2024-01-15T10:32:24.176Z,51.77
2024-01-15T10:34:50.895Z,50.61
2024-01-15T10:37:17.593Z,51.69
2024-01-15T10:39:44.237Z,49.14
2024-01-15T10:42:10.929Z,51.93
2024-01-15T10:44:37.624Z,50.72
2024-01-15T10:47:04.296Z,48.53
2024-01-15T10:49:33.007Z,48.49
2024-01-15T10:52:00.798Z,48.61
2024-01-15T10:54:27.512Z,48.36
2024-01-15T10:56:54.180Z,46.83
2024-01-15T10:59:20.843Z,48.05
2024-01-15T11:01:47.575Z,48.51
2024-01-15T11:04:14.385Z,48.05
2024-01-15T11:06:41.184Z,47.74
2024-01-15T11:09:07.852Z,47.04
2024-01-15T11:11:34.486Z,46.44
2024-01-15T11:14:01.181Z,46.77
2024-01-15T11:16:27.809Z,47.41
2024-01-15T11:18:54.545Z,48.72
2024-01-15T11:21:21.342Z,47.73
2024-01-15T11:23:51.374Z,49.21
2024-01-15T11:26:20.542Z,47.29
2024-01-15T11:28:47.237Z,47.57
2024-01-15T11:31:13.919Z,47.94
2024-01-15T11:33:40.697Z,47.01
2024-01-15T11:36:07.503Z,47.40
2024-01-15T11:38:34.180Z,46.06
2024-01-15T11:41:00.816Z,46.17
2024-01-15T11:43:27.513Z,47.88
2024-01-15T11:45:54.318Z,46.70
2024-01-15T11:48:21.061Z,47.31
2024-01-15T11:50:47.764Z,46.16
2024-01-15T11:53:14.405Z,45.45
2024-01-15T11:55:41.034Z,46.54
2024-01-15T11:58:07.716Z,45.13
2024-01-15T12:00:34.338Z,44.85
2024-01-15T12:03:00.999Z,45.36
2024-01-15T12:05:27.661Z,43.64
2024-01-15T12:07:54.375Z,44.72
2024-01-15T12:10:20.989Z,45.51
2024-01-15T12:12:47.741Z,44.14
2024-01-15T12:15:14.417Z,44.83
2024-01-15T12:17:41.091Z,43.63
2024-01-15T12:20:07.814Z,43.33
2024-01-15T12:22:48.276Z,44.02
2024-01-15T12:25:20.419Z,43.79
2024-01-15T12:27:47.154Z,44.28
2024-01-15T12:30:13.918Z,42.97
2024-01-15T12:32:40.612Z,44.12
2024-01-15T12:35:07.239Z,44.51
2024-01-15T12:37:33.974Z,42.69
2024-01-15T12:40:00.687Z,43.79
2024-01-15T12:42:27.381Z,43.00
2024-01-15T12:44:54.016Z,42.77
2024-01-15T12:47:20.723Z,43.11
2024-01-15T12:49:47.460Z,43.30
2024-01-15T12:52:14.114Z,42.35
2024-01-15T12:54:40.819Z,41.48
2024-01-15T12:57:07.444Z,41.49
2024-01-15T12:59:34.096Z,41.85
2024-01-15T13:02:00.780Z,41.28
2024-01-15T13:04:27.572Z,40.91
2024-01-15T13:06:54.431Z,40.29
2024-01-15T13:09:21.338Z,40.88
2024-01-15T13:11:47.974Z,41.71
2024-01-15T13:14:14.592Z,40.94
2024-01-15T13:16:41.278Z,41.64
2024-01-15T13:19:08.105Z,41.21
2024-01-15T13:21:34.813Z,42.01
2024-01-15T13:24:01.479Z,41.09
2024-01-15T13:26:28.189Z,41.27
2024-01-15T13:28:54.853Z,40.67
2024-01-15T13:31:21.578Z,40.43
2024-01-15T13:33:48.339Z,41.08
2024-01-15T13:36:15.231Z,40.42
2024-01-15T13:38:41.955Z,41.26
2024-01-15T13:41:08.597Z,42.95
2024-01-15T13:43:35.216Z,41.91
2024-01-15T13:46:01.977Z,42.85
2024-01-15T13:48:28.696Z,42.65
2024-01-15T13:50:55.381Z,42.97
2024-01-15T13:53:22.125Z,43.54
2024-01-15T13:55:48.798Z,42.98
2024-01-15T13:58:15.429Z,44.05
2024-01-15T14:00:42.159Z,45.18
2024-01-15T14:03:09.040Z,44.16
2024-01-15T14:05:35.815Z,45.06
2024-01-15T14:08:02.491Z,44.57
2024-01-15T14:10:29.180Z,44.82
2024-01-15T14:12:55.970Z,45.50
2024-01-15T14:15:22.830Z,45.66
2024-01-15T14:17:49.557Z,45.60
2024-01-15T14:20:17.927Z,45.63
2024-01-15T14:22:45.870Z,45.35
2024-01-15T14:25:12.554Z,45.90
2024-01-15T14:27:39.237Z,47.03
2024-01-15T14:30:06.028Z,46.15
2024-01-15T14:32:32.732Z,45.98
2024-01-15T14:34:59.566Z,45.57
2024-01-15T14:37:26.402Z,47.31
2024-01-15T14:39:53.037Z,47.06
2024-01-15T14:42:19.702Z,46.13
2024-01-15T14:44:46.393Z,47.87
2024-01-15T14:47:13.023Z,46.62
2024-01-15T14:49:39.732Z,47.43
2024-01-15T14:52:06.544Z,48.38
2024-01-15T14:54:33.192Z,48.49
2024-01-15T14:56:59.831Z,48.07
2024-01-15T14:59:26.516Z,48.53
2024-01-15T15:01:53.198Z,50.28
2024-01-15T15:04:19.865Z,49.96
2024-01-15T15:06:46.623Z,49.59
2024-01-15T15:09:13.497Z,50.83
2024-01-15T15:11:40.253Z,49.50
2024-01-15T15:14:06.945Z,49.08
2024-01-15T15:16:33.624Z,50.33
2024-01-15T15:19:00.427Z,49.86
2024-01-15T15:21:27.240Z,50.15
2024-01-15T15:23:53.853Z,51.28
2024-01-15T15:26:20.478Z,50.23
2024-01-15T15:28:47.189Z,51.19
2024-01-15T15:31:13.789Z,51.87
2024-01-15T15:33:40.706Z,51.24
2024-01-15T15:36:07.578Z,52.08
2024-01-15T15:38:34.222Z,51.34
2024-01-15T15:41:00.902Z,51.91
2024-01-15T15:43:27.629Z,52.78
2024-01-15T15:45:54.353Z,52.30
2024-01-15T15:48:21.109Z,51.38
2024-01-15T15:50:47.871Z,50.93
2024-01-15T15:53:14.653Z,51.37
2024-01-15T15:55:41.346Z,51.64
2024-01-15T15:58:09.299Z,52.81
2024-01-15T16:00:36.330Z,52.28
2024-01-15T16:03:03.154Z,53.13
2024-01-15T16:05:37.983Z,51.88
2024-01-15T16:08:12.013Z,54.06
2024-01-15T16:10:38.700Z,54.52
2024-01-15T16:13:05.414Z,53.86
2024-01-15T16:15:32.112Z,54.18
2024-01-15T16:23:18.191Z,54.71
2024-01-15T16:23:32.604Z,54.18
2024-01-15T16:24:05.839Z,54.12
2024-01-15T16:26:18.742Z,55.21
2024-01-15T16:28:45.706Z,54.56
2024-01-15T16:31:12.327Z,54.82
2024-01-15T16:33:38.966Z,55.86
2024-01-15T16:36:05.684Z,54.98
2024-01-15T16:38:32.428Z,54.50
2024-01-15T16:40:59.172Z,54.58
2024-01-15T16:43:25.976Z,54.15
2024-01-15T16:45:52.619Z,55.45
2024-01-15T16:48:19.415Z,55.46
2024-01-15T16:50:46.348Z,55.39
2024-01-15T16:53:13.060Z,54.43
2024-01-15T16:55:39.735Z,53.96
2024-01-15T16:58:06.433Z,54.11
2024-01-15T17:00:33.054Z,54.64
2024-01-15T17:02:59.853Z,54.64
2024-01-15T17:05:26.649Z,54.71
2024-01-15T17:07:53.351Z,55.94
2024-01-15T17:10:19.963Z,55.46
2024-01-15T17:12:46.654Z,56.24
2024-01-15T17:15:13.308Z,55.34
2024-01-15T17:17:40.063Z,55.96
2024-01-15T17:20:06.789Z,55.40
2024-01-15T17:22:33.436Z,54.36
2024-01-15T17:25:00.070Z,54.82
2024-01-15T17:27:26.848Z,54.79
2024-01-15T17:29:53.472Z,55.60
2024-01-15T17:32:20.114Z,54.94
2024-01-15T17:34:46.788Z,56.48
2024-01-15T17:37:13.414Z,58.85
2024-01-15T17:39:40.058Z,58.38
2024-01-15T17:42:06.752Z,58.61
2024-01-15T17:44:38.600Z,57.73
2024-01-15T17:47:05.443Z,58.56
2024-01-15T17:49:32.517Z,57.20
2024-01-15T17:51:59.138Z,56.72
2024-01-15T17:54:25.785Z,56.77
2024-01-15T17:56:52.502Z,56.75
2024-01-15T17:59:19.137Z,56.07
2024-01-15T18:01:45.789Z,55.58
2024-01-15T18:04:12.546Z,55.70
2024-01-15T18:06:39.237Z,55.06
2024-01-15T18:09:07.092Z,55.81
2024-01-15T18:11:34.795Z,57.06
2024-01-15T18:14:01.454Z,57.16
2024-01-15T18:16:28.091Z,56.30
2024-01-15T18:18:54.850Z,56.27
2024-01-15T18:21:21.540Z,56.46
2024-01-15T18:23:48.217Z,56.33
2024-01-15T18:26:14.921Z,56.96
2024-01-15T18:28:41.561Z,58.15
2024-01-15T18:31:08.190Z,57.51
2024-01-15T18:33:34.938Z,56.14
2024-01-15T18:36:01.613Z,55.97
2024-01-15T18:38:28.285Z,56.84
2024-01-15T18:40:55.050Z,57.02
2024-01-15T18:43:21.680Z,56.34
2024-01-15T18:45:48.295Z,56.57
2024-01-15T18:48:15.060Z,57.43
2024-01-15T18:50:41.822Z,59.75
2024-01-15T18:53:08.586Z,61.38
2024-01-15T18:55:35.282Z,61.41
2024-01-15T18:58:01.888Z,59.90
2024-01-15T19:00:28.519Z,58.02
2024-01-15T19:02:55.360Z,57.99
2024-01-15T19:05:22.134Z,60.61
2024-01-15T19:07:48.823Z,62.27
2024-01-15T19:10:15.497Z,62.48
2024-01-15T19:12:42.112Z,60.29
2024-01-15T19:15:08.862Z,60.18
2024-01-15T19:17:35.595Z,59.82
2024-01-15T19:20:02.341Z,61.03
2024-01-15T19:22:29.000Z,63.38
2024-01-15T19:24:55.684Z,64.24
2024-01-15T19:27:22.287Z,62.06
2024-01-15T19:29:49.027Z,60.41
2024-01-15T19:32:15.718Z,59.56
2024-01-15T19:34:42.370Z,60.93
2024-01-15T19:37:09.005Z,60.87
2024-01-15T19:39:35.665Z,61.39
2024-01-15T19:42:02.274Z,61.09
2024-01-15T19:44:28.998Z,60.10
2024-01-15T19:46:55.785Z,60.01
2024-01-15T19:49:22.416Z,61.69
2024-01-15T19:51:49.060Z,60.72
2024-01-15T19:54:15.763Z,61.11
2024-01-15T19:56:42.564Z,62.22
2024-01-15T19:59:09.320Z,61.24
2024-01-15T20:01:36.078Z,60.10
2024-01-15T20:04:02.713Z,59.10
2024-01-15T20:06:29.407Z,59.79
2024-01-15T20:08:56.189Z,62.26
2024-01-15T20:11:22.851Z,62.30
2024-01-15T20:13:49.697Z,62.13
2024-01-15T20:16:16.425Z,61.48
2024-01-15T20:18:43.266Z,60.43
2024-01-15T20:21:10.019Z,63.69
2024-01-15T20:23:43.099Z,63.93
2024-01-15T20:26:17.365Z,65.33
2024-01-15T20:28:44.083Z,65.80
2024-01-15T20:31:10.718Z,63.52
2024-01-15T20:33:37.537Z,64.74
2024-01-15T20:36:04.324Z,67.09
2024-01-15T20:38:31.051Z,64.22
2024-01-15T20:40:57.704Z,63.92
2024-01-15T20:43:24.383Z,63.07
2024-01-15T20:45:50.993Z,64.92
2024-01-15T20:48:17.650Z,65.65
2024-01-15T20:50:44.491Z,66.42
2024-01-15T20:53:11.236Z,65.20
2024-01-15T20:55:37.894Z,64.50
2024-01-15T20:58:04.640Z,63.25
2024-01-15T21:00:31.282Z,62.49
2024-01-15T21:02:58.035Z,62.38
2024-01-15T21:05:24.916Z,65.77
2024-01-15T21:07:51.682Z,66.44
2024-01-15T21:10:18.384Z,66.19
2024-01-15T21:12:45.124Z,65.16
2024-01-15T21:15:11.746Z,67.13
2024-01-15T21:17:38.455Z,67.98
2024-01-15T21:20:05.227Z,66.28
2024-01-15T21:22:31.894Z,64.42
2024-01-15T21:24:58.528Z,65.17
2024-01-15T21:27:25.250Z,66.96
2024-01-15T21:29:51.935Z,66.04
2024-01-15T21:32:18.601Z,67.60
2024-01-15T21:34:45.301Z,65.59
2024-01-15T21:37:11.952Z,66.57
2024-01-15T21:39:38.602Z,65.58
2024-01-15T21:42:05.483Z,65.55
2024-01-15T21:44:32.127Z,65.03
2024-01-15T21:46:58.744Z,64.33
2024-01-15T21:49:25.496Z,64.11
2024-01-15T21:51:52.191Z,65.99
2024-01-15T21:54:18.822Z,65.92
2024-01-15T21:56:45.551Z,66.80
2024-01-15T21:59:12.310Z,67.46
2024-01-15T22:01:38.969Z,66.88
2024-01-15T22:04:05.677Z,67.14
2024-01-15T22:06:32.381Z,67.46
2024-01-15T22:08:59.061Z,65.96
2024-01-15T22:11:25.774Z,67.08
2024-01-15T22:13:52.432Z,66.29
2024-01-15T22:16:19.048Z,63.98
2024-01-15T22:18:45.881Z,63.76
2024-01-15T22:21:12.642Z,62.50
2024-01-15T22:23:39.379Z,61.78
2024-01-15T22:26:06.275Z,60.67
2024-01-15T22:28:32.932Z,60.78
2024-01-15T22:30:59.576Z,59.69
2024-01-15T22:33:26.475Z,59.75
2024-01-15T22:35:53.283Z,59.18
2024-01-15T22:38:19.939Z,60.00
2024-01-15T22:40:46.673Z,58.89
2024-01-15T22:43:13.368Z,57.59
2024-01-15T22:45:40.261Z,57.26
2024-01-15T22:48:07.326Z,57.33
2024-01-15T22:50:34.109Z,57.66
2024-01-15T22:53:00.813Z,56.99
2024-01-15T22:55:27.597Z,56.34
2024-01-15T22:57:54.206Z,57.23
2024-01-15T23:00:20.892Z,55.82
2024-01-15T23:02:47.750Z,54.50
2024-01-15T23:05:14.531Z,54.92
2024-01-15T23:07:41.244Z,54.41
2024-01-15T23:10:07.977Z,54.24
2024-01-15T23:12:34.656Z,52.97
2024-01-15T23:15:01.330Z,52.57
2024-01-15T23:17:28.126Z,52.17
2024-01-15T23:19:54.801Z,53.04
2024-01-15T23:22:21.429Z,51.71
2024-01-15T23:24:48.145Z,51.46
2024-01-15T23:27:14.769Z,50.11
2024-01-15T23:29:41.411Z,49.07
2024-01-15T23:32:08.171Z,48.89
2024-01-15T23:34:34.902Z,48.39
2024-01-15T23:37:01.574Z,48.72
2024-01-15T23:39:28.257Z,47.37
2024-01-15T23:41:54.992Z,48.18
2024-01-15T23:44:21.654Z,47.18
2024-01-15T23:46:48.368Z,48.21
2024-01-15T23:49:15.047Z,47.36
2024-01-15T23:51:41.716Z,49.67
2024-01-15T23:54:08.392Z,47.47
2024-01-15T23:56:35.168Z,48.68
2024-01-15T23:59:01.827Z,48.08
